Time;durP1;ratioP1;P1;durP2;ratioP2;P2;SDS_P1;SDS_P2;PMS_P1;PMS_P2;Temp;Humidity;BMP_temperature;BMP_pressure;BME280_temperature;BME280_humidity;BME280_pressure;Samples;Min_cycle;Max_cycle;Signal;HPM_P1;HPM_P2
2023/12/30 00:01:58;;;;;;;28.00;17.70;;;;;;;8.49;67.38;94936.13;5029078;28;20195;-66
2023/12/30 00:04:25;;;;;;;29.87;18.33;;;;;;;8.41;67.26;94930.81;5029428;28;20192;-68
2023/12/30 00:06:52;;;;;;;33.43;19.60;;;;;;;8.46;67.35;94943.19;5029595;28;20183;-67
2023/12/30 00:09:19;;;;;;;28.23;17.80;;;;;;;8.45;67.30;94936.50;5029311;28;20322;-69
2023/12/30 00:11:47;;;;;;;30.23;18.77;;;;;;;8.44;67.21;94934.88;5029131;28;20198;-68
2023/12/30 00:14:14;;;;;;;29.90;17.63;;;;;;;8.39;67.44;94929.34;5029315;28;20300;-68
2023/12/30 00:16:41;;;;;;;28.63;18.10;;;;;;;8.41;67.50;94933.38;5044047;28;20206;-69
2023/12/30 00:19:08;;;;;;;28.10;18.03;;;;;;;8.36;67.48;94924.44;5049428;28;20612;-67
2023/12/30 00:21:35;;;;;;;33.30;18.47;;;;;;;8.16;67.41;94898.78;5049489;28;20248;-70
2023/12/30 00:24:03;;;;;;;26.70;17.53;;;;;;;8.36;67.54;94934.63;5034050;28;20188;-67
2023/12/30 00:26:29;;;;;;;29.87;18.40;;;;;;;8.34;67.52;94937.31;5033377;28;20657;-68
2023/12/30 00:28:58;;;;;;;28.50;17.97;;;;;;;8.34;67.73;94939.84;5033271;28;20653;-69
2023/12/30 00:31:25;;;;;;;30.27;17.87;;;;;;;8.31;67.55;94940.09;5048351;28;20202;-66
2023/12/30 00:33:52;;;;;;;37.60;19.40;;;;;;;8.27;67.28;94938.69;5052790;28;20198;-69
2023/12/30 00:36:20;;;;;;;25.97;16.50;;;;;;;8.20;67.55;94933.28;5053305;28;20241;-69
2023/12/30 00:38:46;;;;;;;29.20;16.50;;;;;;;8.27;67.60;94944.59;5052798;28;20604;-67
2023/12/30 00:41:13;;;;;;;37.83;17.90;;;;;;;8.25;67.46;94946.47;5053163;28;20183;-68
2023/12/30 00:43:41;;;;;;;22.73;17.10;;;;;;;8.24;67.50;94947.38;5052723;28;20199;-67
2023/12/30 00:46:10;;;;;;;28.97;17.20;;;;;;;8.18;67.57;94942.75;5052659;28;20223;-67
2023/12/30 00:48:37;;;;;;;27.87;17.30;;;;;;;8.22;67.48;94953.53;5052947;28;20226;-68
2023/12/30 00:51:04;;;;;;;28.70;16.13;;;;;;;7.96;67.48;94910.47;5057349;28;20191;-65
2023/12/30 00:53:31;;;;;;;30.77;18.10;;;;;;;8.16;67.46;94946.34;5067719;28;20249;-67
2023/12/30 00:55:58;;;;;;;30.33;17.90;;;;;;;8.13;67.71;94954.22;5053072;28;20183;-68
2023/12/30 00:58:25;;;;;;;27.70;16.27;;;;;;;8.16;67.46;94951.44;5052633;28;20206;-70
2023/12/30 01:00:52;;;;;;;27.70;16.57;;;;;;;8.14;67.50;94950.75;5037819;28;20628;-68
2023/12/30 01:03:21;;;;;;;23.87;16.27;;;;;;;8.12;67.89;94948.31;5043319;28;20199;-67
2023/12/30 01:05:48;;;;;;;27.47;15.63;;;;;;;7.76;67.52;94901.78;5032237;28;20184;-67
2023/12/30 01:08:15;;;;;;;27.27;16.23;;;;;;;8.08;67.55;94961.41;5032406;28;20250;-68
2023/12/30 01:10:42;;;;;;;23.73;15.40;;;;;;;8.01;67.88;94946.56;5031966;28;20192;-68
2023/12/30 01:13:09;;;;;;;26.07;15.53;;;;;;;7.85;67.53;94920.63;5032150;28;20560;-67
2023/12/30 01:15:36;;;;;;;25.97;15.90;;;;;;;8.05;67.69;94957.34;5047616;28;20211;-66
2023/12/30 01:18:03;;;;;;;27.07;16.17;;;;;;;7.83;67.70;94919.16;5053291;28;20191;-66
2023/12/30 01:20:32;;;;;;;24.07;14.80;;;;;;;7.98;67.50;94946.00;5039524;28;20196;-65
2023/12/30 01:22:58;;;;;;;28.33;16.53;;;;;;;8.00;67.80;94952.59;5032374;28;20192;-67
2023/12/30 01:25:25;;;;;;;28.40;17.03;;;;;;;7.71;67.65;94903.06;5032842;28;20199;-66
2023/12/30 01:27:52;;;;;;;24.30;15.20;;;;;;;7.98;67.64;94953.63;5031851;28;20328;-65
2023/12/30 01:30:19;;;;;;;27.33;16.73;;;;;;;7.94;67.77;94942.88;5031966;28;20211;-68
2023/12/30 01:32:46;;;;;;;24.70;16.03;;;;;;;7.92;67.66;94936.28;5032034;28;20191;-65
2023/12/30 01:35:14;;;;;;;25.83;16.33;;;;;;;7.95;67.63;94946.25;5031651;28;20282;-66
2023/12/30 01:37:42;;;;;;;27.73;16.53;;;;;;;7.94;67.84;94931.88;5031808;28;20723;-65
2023/12/30 01:40:09;;;;;;;24.83;16.90;;;;;;;7.89;67.63;94931.41;5031851;28;20200;-66
2023/12/30 01:42:36;;;;;;;30.23;17.57;;;;;;;7.91;67.76;94935.47;5031256;28;20203;-65
2023/12/30 01:45:03;;;;;;;27.37;16.90;;;;;;;7.89;67.70;94939.84;5031541;28;20627;-67
2023/12/30 01:47:30;;;;;;;29.53;17.23;;;;;;;7.86;67.64;94926.53;5038304;28;20276;-65
2023/12/30 01:49:57;;;;;;;28.53;17.47;;;;;;;7.88;67.61;94934.88;5051260;28;20688;-67
2023/12/30 01:52:24;;;;;;;26.47;17.17;;;;;;;7.88;67.70;94932.34;5034504;28;20195;-68
2023/12/30 01:54:53;;;;;;;28.20;19.50;;;;;;;7.83;67.76;94926.78;5031502;28;20195;-67
2023/12/30 01:57:20;;;;;;;33.17;18.43;;;;;;;7.85;67.78;94933.38;5031218;28;20628;-68
2023/12/30 01:59:49;;;;;;;31.20;19.93;;;;;;;7.84;67.87;94931.75;5032838;28;20188;-69
2023/12/30 02:02:17;;;;;;;30.70;19.30;;;;;;;7.83;67.81;94924.25;5031596;28;20196;-69
2023/12/30 02:04:44;;;;;;;27.63;19.50;;;;;;;7.82;67.94;94923.44;5031925;28;20206;-69
2023/12/30 02:07:11;;;;;;;28.27;19.60;;;;;;;7.45;67.68;94864.28;5030969;28;20650;-67
2023/12/30 02:09:38;;;;;;;31.67;19.60;;;;;;;7.60;67.62;94890.31;5032077;28;20307;-68
2023/12/30 02:12:07;;;;;;;31.87;19.13;;;;;;;7.71;67.88;94913.25;5050781;28;20685;-67
2023/12/30 02:14:34;;;;;;;29.03;19.47;;;;;;;7.57;67.78;94888.81;5051087;28;20554;-69
2023/12/30 02:17:01;;;;;;;33.43;20.60;;;;;;;7.74;67.82;94916.38;5051160;28;20435;-68
2023/12/30 02:19:27;;;;;;;31.80;18.90;;;;;;;7.76;67.78;94918.78;5050688;28;20661;-68
2023/12/30 02:21:54;;;;;;;32.93;19.93;;;;;;;7.60;67.96;94885.22;5042148;28;20294;-68
2023/12/30 02:24:22;;;;;;;30.70;20.10;;;;;;;7.69;68.07;94910.81;5030994;28;20184;-68
2023/12/30 02:26:49;;;;;;;34.30;19.20;;;;;;;7.73;67.95;94916.50;5030786;28;20208;-67
2023/12/30 02:29:16;;;;;;;34.33;21.20;;;;;;;7.72;67.95;94922.50;5030702;28;20223;-66
2023/12/30 02:31:47;;;;;;;37.43;21.07;;;;;;;7.52;67.81;94889.16;5031473;28;20199;-69
2023/12/30 02:34:14;;;;;;;33.33;20.27;;;;;;;7.68;68.07;94919.34;5030988;28;20202;-69
2023/12/30 02:36:41;;;;;;;34.93;21.23;;;;;;;7.07;67.57;94813.72;5032099;28;20211;-67
2023/12/30 02:39:07;;;;;;;36.70;21.50;;;;;;;7.66;67.92;94913.59;5030634;28;20187;-67
2023/12/30 02:41:36;;;;;;;33.60;21.40;;;;;;;7.67;67.93;94922.84;5030612;28;20203;-69
2023/12/30 02:44:03;;;;;;;35.07;22.30;;;;;;;7.64;67.92;94923.09;5030208;28;20227;-66
2023/12/30 02:46:31;;;;;;;37.87;21.27;;;;;;;7.65;68.31;94919.59;5029974;28;20196;-67
2023/12/30 02:48:57;;;;;;;33.47;22.13;;;;;;;7.64;68.07;94915.44;5031516;28;20216;-68
2023/12/30 02:51:25;;;;;;;39.67;23.07;;;;;;;7.39;67.97;94877.47;5039000;28;20563;-67
2023/12/30 02:53:52;;;;;;;37.43;22.40;;;;;;;7.64;67.91;94917.16;5050198;28;20660;-65
2023/12/30 02:56:20;;;;;;;37.97;22.27;;;;;;;7.62;67.81;94914.75;5050305;28;20198;-67
2023/12/30 02:58:49;;;;;;;38.00;22.53;;;;;;;7.62;68.31;94919.81;5048307;28;20207;-65
2023/12/30 03:01:16;;;;;;;35.50;21.80;;;;;;;7.61;67.97;94913.13;5032977;28;20691;-67
2023/12/30 03:03:44;;;;;;;33.03;21.40;;;;;;;7.40;67.95;94879.91;5030491;28;20318;-65
2023/12/30 03:06:14;;;;;;;35.33;21.87;;;;;;;7.59;68.06;94911.59;5030142;28;20622;-66
2023/12/30 03:08:40;;;;;;;32.30;20.70;;;;;;;7.59;67.97;94914.16;5030603;28;20237;-68
2023/12/30 03:11:08;;;;;;;34.53;22.20;;;;;;;7.52;67.88;94898.53;5043877;28;20679;-68
2023/12/30 03:13:35;;;;;;;35.40;21.87;;;;;;;7.54;67.87;94904.31;5045830;28;20218;-68
2023/12/30 03:16:04;;;;;;;37.07;22.03;;;;;;;7.57;68.05;94910.91;5050088;28;20249;-66
2023/12/30 03:18:31;;;;;;;38.03;23.60;;;;;;;7.55;68.08;94911.00;5048780;28;20356;-67
2023/12/30 03:20:58;;;;;;;35.90;23.00;;;;;;;7.51;68.28;94900.28;5045151;28;20628;-68
2023/12/30 03:23:25;;;;;;;41.43;24.83;;;;;;;7.53;68.00;94900.97;5049730;28;20667;-65
2023/12/30 03:25:52;;;;;;;35.83;22.30;;;;;;;7.26;68.11;94868.19;5049573;28;20210;-68
2023/12/30 03:28:18;;;;;;;39.67;23.77;;;;;;;7.52;68.13;94909.53;5049934;28;20187;-67
2023/12/30 03:30:45;;;;;;;35.67;23.23;;;;;;;7.45;67.84;94900.72;5041116;28;20200;-67
2023/12/30 03:33:13;;;;;;;41.13;23.40;;;;;;;7.52;67.99;94913.81;5061847;28;20217;-67
2023/12/30 03:35:40;;;;;;;43.57;25.10;;;;;;;7.50;67.91;94913.09;5051112;28;20648;-65
2023/12/30 03:38:07;;;;;;;35.27;23.03;;;;;;;7.49;67.98;94917.38;5049296;28;20194;-68
2023/12/30 03:40:33;;;;;;;46.40;24.97;;;;;;;7.48;67.99;94918.31;5047557;28;20190;-68
2023/12/30 03:43:01;;;;;;;38.77;24.03;;;;;;;7.13;68.07;94867.50;5034835;28;20192;-67
2023/12/30 03:45:27;;;;;;;40.00;24.17;;;;;;;7.29;68.09;94897.69;5029742;28;20223;-68
2023/12/30 03:47:54;;;;;;;37.00;23.97;;;;;;;7.29;68.20;94895.13;5029324;28;20692;-67
2023/12/30 03:50:22;;;;;;;34.37;22.67;;;;;;;7.42;67.93;94923.03;5047437;28;20218;-69
2023/12/30 03:52:50;;;;;;;40.93;24.53;;;;;;;7.37;68.10;94915.72;5047094;28;20193;-68
2023/12/30 03:55:17;;;;;;;31.87;22.03;;;;;;;7.33;67.82;94908.44;5044110;28;20622;-66
2023/12/30 03:57:44;;;;;;;36.53;22.60;;;;;;;7.27;67.96;94902.06;5028338;28;20209;-65
2023/12/30 04:00:12;;;;;;;35.20;22.57;;;;;;;7.44;68.11;94927.09;5029663;28;20198;-69
2023/12/30 04:02:39;;;;;;;33.50;22.27;;;;;;;7.44;68.14;94927.09;5030511;28;20190;-66
2023/12/30 04:05:06;;;;;;;34.07;21.50;;;;;;;7.43;68.16;94925.47;5048437;28;20252;-66
2023/12/30 04:07:36;;;;;;;35.20;21.93;;;;;;;7.42;68.04;94928.91;5048962;28;20186;-66
2023/12/30 04:10:03;;;;;;;31.00;20.00;;;;;;;7.43;68.23;94929.75;5043963;28;20207;-65
2023/12/30 04:12:30;;;;;;;35.63;20.93;;;;;;;7.40;68.04;94924.88;5030479;28;20187;-70
2023/12/30 04:14:57;;;;;;;33.67;21.40;;;;;;;7.43;67.90;94933.09;5041147;28;20257;-68
2023/12/30 04:17:24;;;;;;;33.17;20.63;;;;;;;7.43;68.11;94939.94;5049371;28;20191;-69
2023/12/30 04:19:50;;;;;;;30.77;19.77;;;;;;;7.42;68.13;94931.47;5048601;28;20219;-68
2023/12/30 04:22:17;;;;;;;30.33;19.33;;;;;;;7.42;67.96;94931.47;5042825;28;20713;-68
2023/12/30 04:24:45;;;;;;;29.57;19.00;;;;;;;7.31;68.17;94907.75;5048779;28;20272;-70
2023/12/30 04:27:12;;;;;;;28.83;18.33;;;;;;;7.28;68.00;94908.78;5049067;28;20665;-71
2023/12/30 04:29:39;;;;;;;29.67;18.57;;;;;;;7.42;68.11;94938.28;5048441;28;20218;-67
2023/12/30 04:32:06;;;;;;;31.93;17.33;;;;;;;7.42;68.26;94930.66;5041704;28;20210;-71
2023/12/30 04:34:33;;;;;;;28.23;16.73;;;;;;;7.42;67.94;94935.75;5028915;28;20225;-70
2023/12/30 04:37:00;;;;;;;24.47;16.70;;;;;;;7.33;68.02;94923.69;5029224;28;20287;-71
2023/12/30 04:39:27;;;;;;;27.57;17.60;;;;;;;7.26;68.02;94914.00;5028988;28;20211;-70
2023/12/30 04:41:55;;;;;;;31.77;18.07;;;;;;;7.41;68.15;94942.56;5030394;28;20637;-70
2023/12/30 04:44:22;;;;;;;26.93;16.57;;;;;;;7.38;68.09;94939.44;5028804;28;20199;-71
2023/12/30 04:46:48;;;;;;;25.03;16.83;;;;;;;7.24;68.09;94915.81;5029098;28;20290;-69
2023/12/30 04:49:15;;;;;;;24.07;15.70;;;;;;;7.40;68.10;94935.06;5038809;28;20229;-70
2023/12/30 04:51:42;;;;;;;23.33;15.80;;;;;;;7.40;68.17;94950.31;5048137;28;20779;-69
2023/12/30 04:54:09;;;;;;;24.57;15.30;;;;;;;7.30;68.03;94937.47;5037823;28;20184;-69
2023/12/30 04:56:36;;;;;;;24.57;15.93;;;;;;;7.40;68.02;94960.50;5028605;28;20257;-70
2023/12/30 04:59:04;;;;;;;22.50;14.77;;;;;;;7.38;68.15;94963.13;5029094;28;20215;-69
2023/12/30 05:01:31;;;;;;;26.33;16.00;;;;;;;7.20;68.13;94926.31;5028923;28;20195;-67
2023/12/30 05:03:58;;;;;;;28.27;16.37;;;;;;;7.37;68.09;94955.63;5032054;28;20246;-71
2023/12/30 05:06:25;;;;;;;25.30;16.53;;;;;;;7.38;68.09;94960.59;5030934;28;20199;-70
2023/12/30 05:08:53;;;;;;;25.43;15.30;;;;;;;7.36;68.03;94962.47;5029408;28;20622;-68
2023/12/30 05:11:20;;;;;;;25.37;14.87;;;;;;;7.31;67.92;94961.19;5050789;28;20215;-67
2023/12/30 05:13:48;;;;;;;19.93;14.23;;;;;;;7.24;68.08;94950.63;5039805;28;20188;-69
2023/12/30 05:16:16;;;;;;;22.97;15.20;;;;;;;7.36;68.15;94966.75;5032052;28;20568;-68
2023/12/30 05:18:43;;;;;;;20.10;13.83;;;;;;;7.35;68.13;94960.03;5033989;28;20229;-68
2023/12/30 05:21:14;;;;;;;21.83;15.00;;;;;;;7.19;68.02;94935.69;5042296;28;20187;-67
2023/12/30 05:23:41;;;;;;;20.83;14.20;;;;;;;7.16;68.09;94932.56;5050360;28;20211;-69
2023/12/30 05:26:08;;;;;;;23.50;14.70;;;;;;;7.21;68.12;94941.50;5042288;28;20226;-69
2023/12/30 05:28:35;;;;;;;20.87;12.90;;;;;;;7.34;68.16;94964.31;5036825;28;20194;-69
2023/12/30 05:31:02;;;;;;;25.10;14.83;;;;;;;7.35;68.16;94962.56;5039717;28;20238;-71
2023/12/30 05:33:30;;;;;;;22.00;14.73;;;;;;;7.33;68.22;94960.13;5051624;28;20256;-68
2023/12/30 05:35:56;;;;;;;21.37;14.03;;;;;;;7.33;68.13;94957.59;5043469;28;20605;-67
2023/12/30 05:38:23;;;;;;;21.63;14.40;;;;;;;7.26;68.30;94953.88;5032140;28;20675;-68
2023/12/30 05:40:50;;;;;;;24.10;16.23;;;;;;;7.19;68.17;94938.25;5033212;28;20215;-67
2023/12/30 05:43:17;;;;;;;21.73;15.20;;;;;;;7.32;68.36;94958.50;5031562;28;20191;-70
2023/12/30 05:45:44;;;;;;;24.97;15.07;;;;;;;7.33;68.31;94965.22;5031975;28;20180;-70
2023/12/30 05:48:11;;;;;;;22.60;14.47;;;;;;;7.32;68.17;94966.13;5032956;28;20286;-67
2023/12/30 05:50:39;;;;;;;23.63;14.53;;;;;;;7.33;68.33;94969.50;5049626;28;20215;-69
2023/12/30 05:53:06;;;;;;;25.70;15.27;;;;;;;7.32;68.18;94976.31;5051633;28;20183;-70
2023/12/30 05:55:33;;;;;;;23.97;14.30;;;;;;;6.90;68.21;94912.34;5051815;28;20638;-69
2023/12/30 05:58:00;;;;;;;24.30;15.90;;;;;;;7.32;68.20;94981.41;5051148;28;20738;-70
2023/12/30 06:00:26;;;;;;;23.03;15.20;;;;;;;7.32;68.13;94976.31;5049206;28;20194;-69
2023/12/30 06:02:53;;;;;;;22.27;15.13;;;;;;;7.31;68.35;94987.41;5050919;28;20198;-70
2023/12/30 06:05:20;;;;;;;29.17;17.20;;;;;;;7.28;68.32;94977.47;5051281;28;20195;-71
2023/12/30 06:07:48;;;;;;;27.17;15.57;;;;;;;7.32;68.26;94988.22;5048420;28;20233;-69
2023/12/30 06:10:15;;;;;;;25.10;16.63;;;;;;;7.23;68.31;94965.06;5059472;28;20282;-65
2023/12/30 06:12:42;;;;;;;26.97;17.17;;;;;;;7.34;68.35;94982.13;5058049;28;20194;-68
2023/12/30 06:15:09;;;;;;;31.03;17.50;;;;;;;7.35;68.25;94981.19;5050801;28;20195;-66
2023/12/30 06:17:36;;;;;;;28.73;18.90;;;;;;;7.38;68.39;94988.59;5051153;28;20222;-69
2023/12/30 06:20:04;;;;;;;30.97;18.23;;;;;;;7.23;68.54;94964.25;5049630;28;20226;-70
2023/12/30 06:22:31;;;;;;;26.07;17.90;;;;;;;7.35;68.59;94981.19;5033740;28;20238;-69
2023/12/30 06:24:59;;;;;;;31.73;18.10;;;;;;;7.46;68.30;94990.56;5030542;28;20195;-69
2023/12/30 06:27:26;;;;;;;25.00;17.70;;;;;;;7.47;68.40;94995.56;5030785;28;20183;-68
2023/12/30 06:29:52;;;;;;;29.13;19.40;;;;;;;7.51;68.41;94989.34;5035155;28;20193;-69
2023/12/30 06:32:19;;;;;;;30.27;17.83;;;;;;;7.36;68.35;94966.75;5032156;28;20195;-68
2023/12/30 06:34:46;;;;;;;29.13;18.93;;;;;;;7.45;68.18;94979.59;5030494;28;20281;-70
2023/12/30 06:37:14;;;;;;;30.10;19.90;;;;;;;7.50;68.29;94985.16;5030692;28;20191;-69
2023/12/30 06:39:41;;;;;;;29.23;18.07;;;;;;;7.57;68.16;94998.25;5030866;28;20203;-68
2023/12/30 06:42:09;;;;;;;30.20;19.17;;;;;;;7.68;68.15;95011.00;5030703;28;20184;-66
2023/12/30 06:44:36;;;;;;;27.70;18.43;;;;;;;7.74;67.95;95009.75;5030953;28;20221;-66
2023/12/30 06:47:05;;;;;;;29.53;18.60;;;;;;;7.80;67.90;95015.19;5030283;28;20277;-64
2023/12/30 06:49:31;;;;;;;25.77;17.83;;;;;;;7.61;67.53;94969.13;5030379;28;20816;-66
2023/12/30 06:51:58;;;;;;;32.60;19.93;;;;;;;8.02;67.41;95008.50;5046209;28;20206;-67
2023/12/30 06:54:25;;;;;;;26.60;19.03;;;;;;;8.15;67.14;95019.41;5047152;28;20198;-68
2023/12/30 06:56:53;;;;;;;28.27;17.87;;;;;;;8.04;66.96;94983.75;5050237;28;20432;-70
2023/12/30 06:59:21;;;;;;;32.27;19.10;;;;;;;8.30;66.85;95013.16;5030358;28;20199;-67
2023/12/30 07:01:48;;;;;;;27.13;18.83;;;;;;;8.45;66.79;95018.84;5044058;28;20195;-72
2023/12/30 07:04:14;;;;;;;30.40;19.23;;;;;;;8.53;66.77;95029.28;5048437;28;20274;-67
2023/12/30 07:06:41;;;;;;;27.83;18.07;;;;;;;8.64;66.40;95031.03;5049877;28;20187;-66
2023/12/30 07:09:08;;;;;;;29.70;19.77;;;;;;;8.81;66.44;95034.84;5050105;28;20244;-67
2023/12/30 07:11:35;;;;;;;25.03;18.13;;;;;;;9.00;66.14;95040.13;5044327;28;20237;-67
2023/12/30 07:14:02;;;;;;;27.43;19.00;;;;;;;9.19;65.92;95033.56;5047208;28;20198;-71
2023/12/30 07:16:30;;;;;;;29.77;19.57;;;;;;;9.35;65.98;95035.72;5047487;28;20191;-67
2023/12/30 07:18:57;;;;;;;30.40;21.77;;;;;;;9.52;65.88;95042.84;5046579;28;20230;-66
2023/12/30 07:21:23;;;;;;;27.93;19.50;;;;;;;9.76;65.41;95048.56;5045807;28;20202;-65
2023/12/30 07:23:50;;;;;;;29.17;19.13;;;;;;;9.80;65.37;95003.09;5046911;28;20198;-67
2023/12/30 07:26:17;;;;;;;29.23;19.50;;;;;;;10.39;65.42;95045.16;5047124;28;20203;-66
2023/12/30 07:28:44;;;;;;;30.03;20.27;;;;;;;10.70;65.10;95035.72;5047083;28;20925;-70
2023/12/30 07:31:10;;;;;;;30.30;19.77;;;;;;;11.15;65.07;95045.53;5046932;28;20233;-64
2023/12/30 07:33:39;;;;;;;28.73;18.80;;;;;;;11.54;64.78;95048.94;5044831;28;20190;-65
2023/12/30 07:36:07;;;;;;;27.03;18.97;;;;;;;11.89;64.41;95039.91;5046986;28;20285;-66
2023/12/30 07:38:34;;;;;;;26.50;19.07;;;;;;;12.40;63.85;95051.56;5047042;28;20195;-64
2023/12/30 07:41:01;;;;;;;27.07;19.17;;;;;;;12.84;63.43;95060.28;5047189;28;20195;-64
2023/12/30 07:43:28;;;;;;;27.47;19.40;;;;;;;13.19;62.91;95044.13;5044985;28;20312;-63
2023/12/30 07:45:54;;;;;;;25.23;18.47;;;;;;;13.33;62.29;95021.50;5047028;28;20199;-69
2023/12/30 07:48:21;;;;;;;28.93;18.97;;;;;;;13.72;61.97;95058.78;5046995;28;20202;-66
2023/12/30 07:50:49;;;;;;;28.70;20.33;;;;;;;13.80;61.28;95055.47;5036887;28;20203;-67
2023/12/30 07:53:16;;;;;;;26.10;19.67;;;;;;;13.89;60.79;95067.44;5047374;28;20313;-66
2023/12/30 07:55:43;;;;;;;27.77;18.40;;;;;;;13.73;60.34;95033.88;5047080;28;20281;-66
2023/12/30 07:58:10;;;;;;;29.87;19.73;;;;;;;13.81;60.04;95042.47;5038402;28;20203;-65
2023/12/30 08:00:36;;;;;;;26.53;19.70;;;;;;;13.77;59.84;95035.22;5028064;28;20200;-67
2023/12/30 08:03:04;;;;;;;28.70;19.07;;;;;;;13.90;59.48;95057.97;5027120;28;20187;-65
2023/12/30 08:05:31;;;;;;;28.97;19.83;;;;;;;14.05;59.05;95061.63;5027065;28;20187;-64
2023/12/30 08:07:59;;;;;;;25.30;18.60;;;;;;;14.29;58.40;95054.09;5027616;28;20245;-64
2023/12/30 08:10:26;;;;;;;28.07;18.70;;;;;;;14.60;57.54;95060.56;5026549;28;20196;-65
2023/12/30 08:12:52;;;;;;;23.00;18.30;;;;;;;14.61;57.15;95068.13;5028114;28;20275;-70
2023/12/30 08:15:19;;;;;;;26.53;19.27;;;;;;;14.41;57.39;95069.25;5037338;28;20209;-64
2023/12/30 08:17:46;;;;;;;25.73;18.07;;;;;;;14.30;57.40;95071.13;5046809;28;20187;-67
2023/12/30 08:20:13;;;;;;;31.10;18.07;;;;;;;14.25;57.48;95082.84;5046419;28;20234;-65
2023/12/30 08:22:41;;;;;;;25.97;17.90;;;;;;;14.16;57.69;95088.84;5046451;28;20191;-67
2023/12/30 08:25:10;;;;;;;24.73;18.03;;;;;;;14.03;57.89;95086.69;5044989;28;20578;-66
2023/12/30 08:27:37;;;;;;;27.23;18.40;;;;;;;13.97;57.81;95079.56;5046151;28;20274;-67
2023/12/30 08:30:04;;;;;;;26.03;18.40;;;;;;;14.08;57.81;95097.34;5046711;28;20199;-69
2023/12/30 08:32:31;;;;;;;29.37;17.80;;;;;;;14.10;57.96;95100.56;5046069;28;20211;-67
2023/12/30 08:34:58;;;;;;;26.47;17.87;;;;;;;14.24;57.63;95092.31;5044866;28;20198;-70
2023/12/30 08:37:25;;;;;;;26.17;16.43;;;;;;;14.58;56.63;95089.00;5046421;28;20661;-68
2023/12/30 08:39:52;;;;;;;28.17;19.50;;;;;;;14.86;55.44;95060.53;5032639;28;20332;-71
2023/12/30 08:42:21;;;;;;;24.13;18.33;;;;;;;15.40;54.62;95084.19;5028583;28;20222;-68
2023/12/30 08:44:48;;;;;;;26.90;20.27;;;;;;;15.46;53.85;95063.75;5029711;28;20286;-66
2023/12/30 08:47:15;;;;;;;24.27;17.53;;;;;;;15.43;54.08;95081.31;5034477;28;20214;-68
2023/12/30 08:49:42;;;;;;;27.53;18.23;;;;;;;15.12;54.72;95073.34;5039483;28;20195;-69
2023/12/30 08:52:10;;;;;;;15.80;10.97;;;;;;;14.89;68.77;95039.59;5030334;28;20302;-68
2023/12/30 08:54:40;;;;;;;16.63;10.10;;;;;;;15.29;78.06;95050.03;5030595;28;20203;-69
2023/12/30 08:57:07;;;;;;;11.97;10.17;;;;;;;15.77;77.31;95052.88;5030103;28;20286;-66
2023/12/30 08:59:35;;;;;;;15.67;11.53;;;;;;;16.20;74.95;95049.16;5030145;28;20534;-69
2023/12/30 09:02:02;;;;;;;17.90;11.40;;;;;;;16.50;72.98;95036.50;5030030;28;20196;-68
2023/12/30 09:04:30;;;;;;;15.10;12.03;;;;;;;16.78;70.40;95039.50;5030486;28;20198;-71
2023/12/30 09:06:57;;;;;;;20.77;11.97;;;;;;;17.15;68.06;95048.41;5030161;28;20204;-69
2023/12/30 09:09:24;;;;;;;21.23;13.63;;;;;;;17.37;65.81;95055.38;5029607;28;20196;-68
2023/12/30 09:11:51;;;;;;;16.83;11.23;;;;;;;17.55;64.69;95047.34;5029636;28;20273;-64
2023/12/30 09:14:18;;;;;;;18.00;11.90;;;;;;;17.76;65.73;95052.75;5029600;28;20196;-71
2023/12/30 09:16:46;;;;;;;17.23;12.73;;;;;;;17.85;64.82;95057.84;5038988;28;20191;-69
2023/12/30 09:19:13;;;;;;;22.77;13.47;;;;;;;17.74;63.84;95054.69;5049220;28;20230;-69
2023/12/30 09:21:40;;;;;;;19.67;13.00;;;;;;;17.56;63.02;95048.97;5037726;28;20199;-67
2023/12/30 09:24:07;;;;;;;21.93;13.83;;;;;;;17.37;62.52;95049.41;5029501;28;20188;-69
2023/12/30 09:26:34;;;;;;;24.40;14.80;;;;;;;17.15;62.06;95041.44;5029550;28;20693;-65
2023/12/30 09:29:01;;;;;;;21.80;15.90;;;;;;;16.75;61.85;95012.25;5029494;28;20670;-67
2023/12/30 09:31:28;;;;;;;18.10;15.10;;;;;;;16.74;61.52;95041.59;5029272;28;20223;-70
2023/12/30 09:33:56;;;;;;;20.50;15.10;;;;;;;16.56;61.21;95038.41;5029272;28;20209;-70
2023/12/30 09:36:23;;;;;;;24.93;15.00;;;;;;;16.40;61.18;95033.28;5040400;28;20253;-70
2023/12/30 09:38:51;;;;;;;29.13;16.10;;;;;;;16.21;60.94;95021.56;5046451;28;20746;-64
2023/12/30 09:41:20;;;;;;;29.97;17.40;;;;;;;16.05;60.66;95020.59;5029685;28;20211;-65
2023/12/30 09:43:49;;;;;;;21.73;16.17;;;;;;;15.92;60.76;95015.13;5029521;28;20195;-64
2023/12/30 09:46:17;;;;;;;21.23;15.77;;;;;;;15.79;60.61;95019.97;5028988;28;20266;-71
2023/12/30 09:48:44;;;;;;;22.33;15.70;;;;;;;15.20;60.44;94934.25;5029363;28;20546;-65
2023/12/30 09:51:13;;;;;;;22.30;16.40;;;;;;;15.58;60.55;95012.69;5035593;28;20208;-63
2023/12/30 09:53:39;;;;;;;21.13;16.07;;;;;;;15.57;60.49;95018.81;5029135;28;20195;-63
2023/12/30 09:56:07;;;;;;;22.53;16.40;;;;;;;15.51;60.63;95020.28;5028654;28;20188;-66
2023/12/30 09:58:35;;;;;;;24.37;16.40;;;;;;;15.44;60.91;95016.72;5029831;28;20196;-63
2023/12/30 10:01:04;;;;;;;22.80;16.20;;;;;;;15.36;61.12;95019.28;5028450;28;20939;-65
2023/12/30 10:03:32;;;;;;;25.43;16.70;;;;;;;14.78;61.13;94930.78;5028755;28;20188;-66
2023/12/30 10:06:01;;;;;;;26.93;17.90;;;;;;;15.21;61.18;95005.41;5028733;28;20188;-64
2023/12/30 10:08:30;;;;;;;27.50;18.00;;;;;;;15.05;61.09;94993.28;5029070;28;20199;-63
2023/12/30 10:10:58;;;;;;;22.40;16.43;;;;;;;15.02;60.98;94993.59;5029557;28;20207;-65
2023/12/30 10:13:26;;;;;;;22.53;17.80;;;;;;;14.81;61.00;94960.56;5029965;28;20199;-66
2023/12/30 10:15:55;;;;;;;26.77;18.00;;;;;;;14.77;60.97;94964.41;5044380;28;20306;-67
2023/12/30 10:18:22;;;;;;;24.50;19.07;;;;;;;14.98;60.89;94989.72;5029059;28;20705;-64
2023/12/30 10:20:49;;;;;;;28.43;18.23;;;;;;;14.95;60.53;94992.63;5029058;28;20195;-67
2023/12/30 10:23:16;;;;;;;27.87;18.07;;;;;;;14.85;60.57;94979.06;5028357;28;20254;-68
2023/12/30 10:25:46;;;;;;;26.73;18.47;;;;;;;14.88;60.38;94976.19;5028293;28;20191;-70
2023/12/30 10:28:13;;;;;;;27.87;20.20;;;;;;;14.90;60.26;94976.84;5028581;28;20188;-66
2023/12/30 10:30:40;;;;;;;27.37;18.60;;;;;;;14.74;60.30;94944.94;5028705;28;20303;-66
2023/12/30 10:33:08;;;;;;;25.90;18.57;;;;;;;14.90;60.21;94963.97;5032509;28;20269;-67
2023/12/30 10:35:35;;;;;;;25.30;18.10;;;;;;;14.79;60.06;94945.25;5048255;28;20179;-68
2023/12/30 10:38:03;;;;;;;25.83;19.30;;;;;;;14.97;60.02;94977.81;5047941;28;20187;-63
2023/12/30 10:40:30;;;;;;;24.20;19.77;;;;;;;14.98;59.85;94974.28;5048362;28;20217;-66
2023/12/30 10:42:59;;;;;;;26.50;19.33;;;;;;;14.94;59.69;94966.06;5047681;28;20199;-64
2023/12/30 10:45:26;;;;;;;28.13;19.60;;;;;;;14.98;59.77;94975.09;5047969;28;20180;-62
2023/12/30 10:47:56;;;;;;;32.60;19.77;;;;;;;14.88;59.51;94946.09;5046919;28;20218;-63
2023/12/30 10:50:26;;;;;;;31.33;19.27;;;;;;;15.02;59.48;94958.34;5048166;28;20294;-67
2023/12/30 10:53:01;;;;;;;26.43;19.60;;;;;;;14.87;59.28;94943.69;5031648;28;20652;-68
2023/12/30 10:55:38;;;;;;;28.20;20.90;;;;;;;15.05;59.27;94959.81;5032128;28;20664;-69
2023/12/30 10:58:14;;;;;;;32.60;20.53;;;;;;;15.08;59.18;94956.13;5047310;28;20282;-69
2023/12/30 11:00:44;;;;;;;28.83;21.57;;;;;;;14.99;59.03;94945.00;5047781;28;20194;-65
2023/12/30 11:03:11;;;;;;;29.20;20.20;;;;;;;15.12;59.08;94954.84;5047619;28;20199;-66
2023/12/30 11:05:44;;;;;;;32.23;21.50;;;;;;;15.08;59.00;94940.66;5047314;28;20253;-66
2023/12/30 11:08:12;;;;;;;31.80;22.47;;;;;;;15.10;58.79;94934.38;5047213;28;20204;-68
2023/12/30 11:10:38;;;;;;;29.00;21.37;;;;;;;15.18;58.70;94943.88;5040212;28;20610;-67
2023/12/30 11:13:08;;;;;;;30.73;22.87;;;;;;;15.18;58.66;94938.72;5027373;28;20219;-66
2023/12/30 11:15:38;;;;;;;29.60;21.50;;;;;;;15.14;58.44;94927.13;5031933;28;20245;-65
2023/12/30 11:18:05;;;;;;;26.80;21.00;;;;;;;15.23;58.58;94936.47;5046804;28;20218;-68
2023/12/30 11:20:36;;;;;;;29.50;21.43;;;;;;;15.25;58.41;94937.13;5047433;28;20278;-66
2023/12/30 11:23:04;;;;;;;33.80;21.37;;;;;;;15.12;58.33;94911.03;5047425;28;20206;-66